Time;durP1;ratioP1;P1;durP2;ratioP2;P2;SDS_P1;SDS_P2;PMS_P1;PMS_P2;Temp;Humidity;BMP_temperature;BMP_pressure;BME280_temperature;BME280_humidity;BME280_pressure;Samples;Min_cycle;Max_cycle;Signal;HPM_P1;HPM_P2
2023/04/05 00:00:24;;;;;;;10.23;5.30;;;;;;;-142.75;100.00;78956.78;4993551;28;20049;-66
2023/04/05 00:02:51;;;;;;;10.20;6.03;;;;;;;-142.75;100.00;78956.78;4993519;28;20425;-64
2023/04/05 00:05:28;;;;;;;14.43;6.33;;;;;;;-142.75;100.00;78935.13;4992067;28;20429;-65
2023/04/05 00:07:54;;;;;;;11.57;5.97;;;;;;;-142.75;100.00;78933.16;4993209;28;20030;-64
2023/04/05 00:10:19;;;;;;;11.37;6.13;;;;;;;-142.75;100.00;78935.13;4992094;28;20088;-66
2023/04/05 00:12:44;;;;;;;;;;;;;;;-142.75;100.00;78927.25;4992924;28;20103;-65
2023/04/05 00:15:10;;;;;;;11.20;4.63;;;;;;;-142.75;100.00;78943.00;4993126;28;19952;-64
2023/04/05 00:17:35;;;;;;;12.60;6.40;;;;;;;-142.75;100.00;78944.97;4991909;28;20058;-65
2023/04/05 00:20:03;;;;;;;;;;;;;;;-142.75;100.00;78935.13;4993504;28;20035;-64
2023/04/05 00:22:34;;;;;;;14.40;6.33;;;;;;;-142.75;100.00;78956.78;4992986;28;19914;-64
2023/04/05 00:25:00;;;;;;;12.97;6.23;;;;;;;-142.75;100.00;78948.91;4991539;28;20033;-63
2023/04/05 00:27:25;;;;;;;12.93;6.43;;;;;;;-142.75;100.00;78972.56;4991821;28;20494;-64
2023/04/05 00:29:51;;;;;;;13.70;6.87;;;;;;;-142.75;100.00;78968.63;4993038;28;20482;-63
2023/04/05 00:32:16;;;;;;;16.07;6.27;;;;;;;-142.75;100.00;78976.50;4992937;28;20026;-64
2023/04/05 00:34:41;;;;;;;12.77;5.93;;;;;;;-142.75;100.00;78972.56;4992912;28;20033;-65
2023/04/05 00:37:07;;;;;;;;;;;;;;;-142.75;100.00;78966.66;4993179;28;20394;-64
2023/04/05 00:39:32;;;;;;;12.70;6.30;;;;;;;-142.75;100.00;78956.78;4992768;28;20007;-64
2023/04/05 00:41:57;;;;;;;17.47;7.13;;;;;;;-142.75;100.00;78958.75;4992630;28;20121;-64
2023/04/05 00:44:22;;;;;;;15.23;7.07;;;;;;;-142.75;100.00;78952.84;4992834;28;20146;-64
2023/04/05 00:46:48;;;;;;;;;;;;;;;-142.75;100.00;78929.22;4991735;28;20445;-64
2023/04/05 00:49:13;;;;;;;12.13;6.17;;;;;;;-142.75;100.00;78921.34;4992632;28;19920;-65
2023/04/05 00:51:39;;;;;;;14.30;6.23;;;;;;;-142.75;100.00;78917.41;4992712;28;20669;-64
2023/04/05 00:54:05;;;;;;;;;;;;;;;-142.75;100.00;78907.56;4993021;28;20081;-64
2023/04/05 00:56:31;;;;;;;11.73;5.63;;;;;;;-142.75;100.00;78913.47;4991175;28;19914;-64
2023/04/05 00:58:56;;;;;;;10.83;6.30;;;;;;;-142.75;100.00;78915.44;4992568;28;20057;-66
2023/04/05 01:01:25;;;;;;;13.47;6.47;;;;;;;-142.75;100.00;78923.31;4992389;28;20442;-65
2023/04/05 01:04:02;;;;;;;12.20;6.50;;;;;;;-142.75;100.00;78909.53;4992291;28;20430;-66
2023/04/05 01:06:49;;;;;;;11.53;6.60;;;;;;;-142.75;100.00;78905.59;4991099;28;20514;-65
2023/04/05 01:09:33;;;;;;;12.03;5.77;;;;;;;-142.75;100.00;78915.44;4992344;28;20108;-66
2023/04/05 01:12:04;;;;;;;13.90;7.17;;;;;;;-142.75;100.00;78917.41;4991014;28;20475;-63
2023/04/05 01:14:30;;;;;;;10.03;5.30;;;;;;;-142.75;100.00;78903.63;4992309;28;20022;-64
2023/04/05 01:16:56;;;;;;;12.10;5.97;;;;;;;-142.75;100.00;78905.59;4992020;28;20042;-64
2023/04/05 01:19:25;;;;;;;12.17;6.43;;;;;;;-142.75;100.00;78909.53;4992108;28;20026;-64
2023/04/05 01:22:12;;;;;;;12.73;6.20;;;;;;;-142.75;100.00;78905.59;4992024;28;20034;-64
2023/04/05 01:25:09;;;;;;;14.80;6.10;;;;;;;-142.75;100.00;78909.53;4994255;28;20034;-62
2023/04/05 01:28:03;;;;;;;9.20;4.78;;;;;;;-142.75;100.00;78921.34;4997484;28;20049;-64
2023/04/05 01:30:37;;;;;;;12.20;5.83;;;;;;;-142.75;100.00;78948.91;4997511;28;20037;-64
2023/04/05 01:33:09;;;;;;;10.53;5.50;;;;;;;-142.75;100.00;78960.72;4998691;28;20029;-64
2023/04/05 01:35:44;;;;;;;10.27;5.60;;;;;;;-142.75;100.00;78941.03;4998643;28;20512;-64
2023/04/05 01:38:14;;;;;;;12.37;7.23;;;;;;;-142.75;100.00;78952.84;4998786;28;20022;-64
2023/04/05 01:40:40;;;;;;;15.60;6.60;;;;;;;-142.75;100.00;78950.88;4997504;28;20060;-64
2023/04/05 01:43:16;;;;;;;10.27;5.73;;;;;;;-142.75;100.00;78948.91;4997319;28;20367;-64
2023/04/05 01:45:42;;;;;;;11.23;5.37;;;;;;;-142.75;100.00;78941.03;4998521;28;20453;-65
2023/04/05 01:48:08;;;;;;;10.90;5.87;;;;;;;-142.75;100.00;78948.91;4998431;28;20037;-64
2023/04/05 01:50:33;;;;;;;11.43;6.33;;;;;;;-142.75;100.00;78952.84;4997276;28;20018;-64
2023/04/05 01:52:58;;;;;;;;;;;;;;;-142.75;100.00;78952.84;4998913;28;20027;-63
2023/04/05 01:55:24;;;;;;;10.77;5.50;;;;;;;-142.75;100.00;78958.75;4998444;28;19910;-65
2023/04/05 01:57:50;;;;;;;15.40;7.03;;;;;;;-142.75;100.00;78956.78;4998394;28;20022;-65
2023/04/05 02:00:16;;;;;;;10.43;6.13;;;;;;;-142.75;100.00;78960.72;4998470;28;20034;-63
2023/04/05 02:02:42;;;;;;;12.00;6.10;;;;;;;-142.75;100.00;78941.03;4998216;28;20026;-65
2023/04/05 02:05:07;;;;;;;12.70;7.37;;;;;;;-142.75;100.00;78950.88;4998247;28;20080;-63
2023/04/05 02:07:33;;;;;;;;;;;;;;;-142.75;100.00;78939.06;4997595;28;20101;-64
2023/04/05 02:09:58;;;;;;;12.27;5.63;;;;;;;-142.75;100.00;78952.84;4998218;28;19913;-65
2023/04/05 02:12:23;;;;;;;13.30;6.70;;;;;;;-142.75;100.00;78958.75;4997065;28;20030;-63
2023/04/05 02:14:50;;;;;;;10.83;6.00;;;;;;;-142.75;100.00;78954.81;4997076;28;20050;-65
2023/04/05 02:17:16;;;;;;;10.90;5.93;;;;;;;-142.75;100.00;78937.09;4998118;28;20032;-64
2023/04/05 02:19:45;;;;;;;12.50;5.90;;;;;;;-142.75;100.00;78944.97;4998287;28;20034;-63
2023/04/05 02:22:11;;;;;;;13.07;6.53;;;;;;;-142.75;100.00;78946.94;4998201;28;20030;-64
2023/04/05 02:24:36;;;;;;;15.03;6.63;;;;;;;-142.75;100.00;78952.84;4998355;28;20034;-63
2023/04/05 02:27:01;;;;;;;;;;;;;;;-142.75;100.00;78950.88;4998603;28;20486;-64
2023/04/05 02:29:27;;;;;;;10.67;6.50;;;;;;;-142.75;100.00;78948.91;4996889;28;20431;-64
2023/04/05 02:31:52;;;;;;;11.97;7.07;;;;;;;-142.75;100.00;78970.59;4998064;28;20038;-64
2023/04/05 02:34:18;;;;;;;15.80;6.47;;;;;;;-142.75;100.00;78958.75;4998203;28;20026;-64
2023/04/05 02:36:43;;;;;;;;;;;;;;;-142.75;100.00;78960.72;4995505;28;20045;-63
2023/04/05 02:39:08;;;;;;;10.50;5.93;;;;;;;-142.75;100.00;78960.72;4995033;28;19916;-64
2023/04/05 02:41:35;;;;;;;13.33;6.23;;;;;;;-142.75;100.00;78960.72;4995054;28;20084;-66
2023/04/05 02:44:00;;;;;;;13.40;5.90;;;;;;;-142.75;100.00;78980.44;4994954;28;20030;-64
2023/04/05 02:46:26;;;;;;;10.50;5.83;;;;;;;-142.75;100.00;78972.56;4994827;28;20030;-64
2023/04/05 02:48:51;;;;;;;10.90;6.57;;;;;;;-142.75;100.00;78962.69;4993575;28;20018;-64
2023/04/05 02:51:16;;;;;;;14.47;6.47;;;;;;;-142.75;100.00;78964.69;4994875;28;20121;-65
2023/04/05 02:53:43;;;;;;;10.30;5.27;;;;;;;-142.75;100.00;78964.69;4994769;28;20046;-64
2023/04/05 02:56:12;;;;;;;10.63;6.17;;;;;;;-142.75;100.00;78970.59;4994709;28;20041;-65
2023/04/05 02:58:38;;;;;;;14.00;7.30;;;;;;;-142.75;100.00;78966.66;4993378;28;20018;-64
2023/04/05 03:01:06;;;;;;;12.63;6.30;;;;;;;-142.75;100.00;78954.81;4994606;28;20431;-65
2023/04/05 03:03:36;;;;;;;14.60;6.50;;;;;;;-142.75;100.00;78960.72;4994441;28;20057;-64
2023/04/05 03:06:10;;;;;;;11.10;6.53;;;;;;;-142.75;100.00;78968.63;4994722;28;20023;-64
2023/04/05 03:08:48;;;;;;;14.83;6.80;;;;;;;-142.75;100.00;78960.72;4994417;28;20391;-64
2023/04/05 03:11:13;;;;;;;16.20;7.50;;;;;;;-142.75;100.00;78968.63;4993338;28;20089;-63
2023/04/05 03:13:39;;;;;;;15.13;7.33;;;;;;;-142.75;100.00;78968.63;4994381;28;20030;-64
2023/04/05 03:16:05;;;;;;;;;;;;;;;-142.75;100.00;78943.00;4994738;28;20030;-63
2023/04/05 03:18:30;;;;;;;11.67;5.97;;;;;;;-142.75;100.00;78980.44;4994274;28;19956;-63
2023/04/05 03:20:57;;;;;;;16.20;7.87;;;;;;;-142.75;100.00;78964.69;4993071;28;20026;-64
2023/04/05 03:23:27;;;;;;;12.57;7.10;;;;;;;-142.75;100.00;78970.59;4994170;28;20022;-65
2023/04/05 03:26:02;;;;;;;12.67;6.87;;;;;;;-142.75;100.00;78976.50;4993011;28;20038;-64
2023/04/05 03:28:33;;;;;;;12.33;6.73;;;;;;;-142.75;100.00;78980.44;4994224;28;20441;-62
2023/04/05 03:30:59;;;;;;;12.73;6.90;;;;;;;-142.75;100.00;78960.72;4992983;28;20400;-65
2023/04/05 03:33:24;;;;;;;12.80;7.23;;;;;;;-142.75;100.00;78972.56;4993957;28;20018;-64
2023/04/05 03:35:50;;;;;;;12.60;7.00;;;;;;;-142.75;100.00;78964.69;4993815;28;20406;-63
2023/04/05 03:38:16;;;;;;;13.93;7.10;;;;;;;-142.75;100.00;78950.88;4993721;28;20058;-63
2023/04/05 03:40:41;;;;;;;;;;;;;;;-142.75;100.00;78952.84;5009453;28;20030;-65
2023/04/05 03:43:06;;;;;;;14.00;7.47;;;;;;;-142.75;100.00;78950.88;4992477;28;19914;-65
2023/04/05 03:45:32;;;;;;;;;;;;;;;-142.75;100.00;78941.03;4992925;28;20065;-63
2023/04/05 03:47:58;;;;;;;13.33;6.63;;;;;;;-142.75;100.00;78952.84;4992775;28;19909;-66
2023/04/05 03:50:25;;;;;;;13.13;6.10;;;;;;;-142.75;100.00;78964.69;4993784;28;20037;-63
2023/04/05 03:52:51;;;;;;;11.70;6.17;;;;;;;-142.75;100.00;78974.53;4993670;28;20068;-64
2023/04/05 03:55:16;;;;;;;10.87;6.80;;;;;;;-142.75;100.00;78992.25;5021260;22;20136;-67
2023/04/05 03:57:42;;;;;;;15.07;7.70;;;;;;;-142.75;100.00;78978.47;5012440;28;20478;-69
2023/04/05 04:00:14;;;;;;;;;;;;;;;-142.75;100.00;78980.44;5011809;28;20038;-67
2023/04/05 04:02:46;;;;;;;17.10;8.07;;;;;;;-142.75;100.00;78984.38;5013053;28;19925;-69
2023/04/05 04:05:13;;;;;;;14.27;7.23;;;;;;;-142.75;100.00;78988.31;5012842;28;20022;-69
2023/04/05 04:07:40;;;;;;;16.50;7.97;;;;;;;-142.75;100.00;78992.25;5013023;28;20537;-69
2023/04/05 04:10:06;;;;;;;15.77;7.00;;;;;;;-142.75;100.00;78994.22;5013122;28;20080;-69
2023/04/05 04:12:32;;;;;;;12.50;7.87;;;;;;;-142.75;100.00;78992.25;5012934;28;20018;-67
2023/04/05 04:14:57;;;;;;;12.73;7.40;;;;;;;-142.75;100.00;78990.28;5012826;28;20033;-67
2023/04/05 04:17:27;;;;;;;15.37;7.47;;;;;;;-142.75;100.00;78992.25;5011494;28;20026;-67
2023/04/05 04:19:53;;;;;;;12.07;7.77;;;;;;;-142.75;100.00;78992.25;5011517;28;20028;-67
2023/04/05 04:22:19;;;;;;;15.03;7.93;;;;;;;-142.75;100.00;78976.50;5012683;28;20029;-67
2023/04/05 04:24:48;;;;;;;17.17;8.10;;;;;;;-142.75;100.00;78984.38;5012717;28;20022;-67
2023/04/05 04:27:15;;;;;;;11.27;7.27;;;;;;;-142.75;100.00;79002.09;5012766;28;20049;-70
2023/04/05 04:29:45;;;;;;;14.27;7.33;;;;;;;-142.75;100.00;79002.09;5011414;28;20029;-70
2023/04/05 04:32:11;;;;;;;12.27;7.33;;;;;;;-142.75;100.00;79019.81;5011248;28;20013;-70
2023/04/05 04:34:37;;;;;;;11.90;6.90;;;;;;;-142.75;100.00;79021.78;5012476;28;20083;-70
2023/04/05 04:37:02;;;;;;;13.20;6.07;;;;;;;-142.75;100.00;79043.47;5012417;28;20022;-69
2023/04/05 04:39:30;;;;;;;9.40;5.37;;;;;;;-142.75;100.00;79043.47;5012499;28;20053;-71
2023/04/05 04:41:56;;;;;;;10.07;4.67;;;;;;;-142.75;100.00;79037.56;5012290;28;20030;-69
2023/04/05 04:44:27;;;;;;;10.43;5.40;;;;;;;-142.75;100.00;79031.66;5011172;28;20371;-70
2023/04/05 04:46:53;;;;;;;7.83;4.77;;;;;;;-142.75;100.00;79041.50;5009741;28;20026;-70
2023/04/05 04:49:20;;;;;;;6.07;3.40;;;;;;;-142.75;100.00;79047.41;5011054;28;20490;-70
2023/04/05 04:51:45;;;;;;;10.00;6.03;;;;;;;-142.75;100.00;79059.22;5010928;28;20025;-69
2023/04/05 04:54:11;;;;;;;9.63;5.60;;;;;;;-142.75;100.00;79053.31;5012290;28;20032;-69
2023/04/05 04:56:37;;;;;;;11.00;4.93;;;;;;;-142.75;100.00;79041.50;5010655;28;20029;-69
2023/04/05 04:59:02;;;;;;;17.33;8.03;;;;;;;-142.75;100.00;79029.66;5011300;28;20482;-71
2023/04/05 05:01:27;;;;;;;11.93;6.80;;;;;;;-142.75;100.00;79013.91;5010871;28;20026;-69
2023/04/05 05:03:53;;;;;;;18.57;8.17;;;;;;;-142.75;100.00;79029.66;5011939;28;20030;-69
2023/04/05 05:06:20;;;;;;;8.87;5.23;;;;;;;-142.75;100.00;79043.47;5011888;28;20080;-69
2023/04/05 05:08:46;;;;;;;9.67;4.93;;;;;;;-142.75;100.00;79061.19;5012162;28;20580;-69
2023/04/05 05:11:11;;;;;;;11.67;7.07;;;;;;;-142.75;100.00;79047.41;5012041;28;20072;-70
2023/04/05 05:13:37;;;;;;;13.50;7.77;;;;;;;-142.75;100.00;79051.34;5011650;28;20076;-69
2023/04/05 05:16:03;;;;;;;12.40;6.97;;;;;;;-142.75;100.00;79041.50;5011754;28;20037;-69
2023/04/05 05:18:28;;;;;;;11.87;7.97;;;;;;;-142.75;100.00;79023.75;5011879;28;20072;-69
2023/04/05 05:20:54;;;;;;;19.10;8.93;;;;;;;-142.75;100.00;79013.91;5011789;28;20026;-69
2023/04/05 05:23:20;;;;;;;;;;;;;;;-142.75;100.00;79004.06;5012205;28;20049;-69
2023/04/05 05:25:45;;;;;;;13.93;7.63;;;;;;;-142.75;100.00;79017.84;5011747;28;20299;-69
2023/04/05 05:28:10;;;;;;;15.07;8.37;;;;;;;-142.75;100.00;79019.81;5011871;28;20075;-69
2023/04/05 05:30:36;;;;;;;;;;;;;;;-142.75;100.00;79006.03;5010992;28;20029;-69
2023/04/05 05:33:01;;;;;;;10.93;6.43;;;;;;;-142.75;100.00;79008.00;5010523;28;19929;-69
2023/04/05 05:35:26;;;;;;;12.00;6.87;;;;;;;-142.75;100.00;78990.28;5011594;28;20079;-69
2023/04/05 05:37:52;;;;;;;12.33;6.00;;;;;;;-142.75;100.00;78998.16;5011815;28;20071;-69
2023/04/05 05:40:17;;;;;;;16.47;9.67;;;;;;;-142.75;100.00;79000.13;5010497;28;20040;-69
2023/04/05 05:42:42;;;;;;;9.10;5.90;;;;;;;-142.75;100.00;79004.06;5011518;28;20026;-69
2023/04/05 05:45:08;;;;;;;9.53;5.27;;;;;;;-142.75;100.00;79023.75;5011461;28;20474;-69
2023/04/05 05:47:34;;;;;;;7.90;5.37;;;;;;;-142.75;100.00;79021.78;5011653;28;20024;-69
2023/04/05 05:50:00;;;;;;;10.77;6.00;;;;;;;-142.75;100.00;79015.88;5011746;28;20397;-69
2023/04/05 05:52:25;;;;;;;12.43;6.70;;;;;;;-142.75;100.00;79013.91;5010278;28;20485;-69
2023/04/05 05:54:50;;;;;;;12.03;6.30;;;;;;;-142.75;100.00;78980.44;5009202;28;20022;-69
2023/04/05 05:57:16;;;;;;;12.53;6.97;;;;;;;-142.75;100.00;78966.66;5011516;28;20041;-69
2023/04/05 05:59:41;;;;;;;14.40;8.67;;;;;;;-142.75;100.00;78966.66;5011540;28;20022;-69
2023/04/05 06:02:07;;;;;;;13.17;7.83;;;;;;;-142.75;100.00;78948.91;5011233;28;20037;-68
2023/04/05 06:04:33;;;;;;;14.70;8.30;;;;;;;-142.75;100.00;78931.19;5011574;28;20029;-66
2023/04/05 06:06:59;;;;;;;16.13;7.83;;;;;;;-142.75;100.00;78917.41;5011341;28;20022;-67
2023/04/05 06:09:25;;;;;;;13.63;6.77;;;;;;;-142.75;100.00;78956.78;4995129;28;20053;-68
2023/04/05 06:11:51;;;;;;;14.60;7.13;;;;;;;-142.75;100.00;78935.13;4993769;28;20490;-69
2023/04/05 06:14:16;;;;;;;9.90;6.77;;;;;;;-142.75;100.00;78895.75;4995515;28;20528;-70
2023/04/05 06:16:42;;;;;;;11.80;7.40;;;;;;;-142.75;100.00;78874.06;4998280;28;20065;-69
2023/04/05 06:19:07;;;;;;;;;;;;;;;-142.75;100.00;78830.75;5012670;28;20026;-66
2023/04/05 06:21:32;;;;;;;13.33;8.10;;;;;;;-142.75;100.00;78830.75;5015246;28;19968;-66
2023/04/05 06:23:58;;;;;;;14.20;8.03;;;;;;;-142.75;100.00;78838.63;5003005;28;20053;-66
2023/04/05 06:26:27;;;;;;;16.57;9.07;;;;;;;-142.75;100.00;78813.00;5011774;28;20018;-65
2023/04/05 06:28:53;;;;;;;16.13;8.47;;;;;;;-142.75;100.00;78813.00;5014776;28;20021;-65
2023/04/05 06:31:24;;;;;;;18.20;9.23;;;;;;;-142.75;100.00;78779.53;5014881;28;20033;-65
2023/04/05 06:33:50;;;;;;;19.07;9.93;;;;;;;-142.75;100.00;78716.50;5014724;28;20033;-65
2023/04/05 06:36:15;;;;;;;18.97;9.53;;;;;;;-142.75;100.00;78663.31;5014853;28;20512;-65
2023/04/05 06:38:40;;;;;;;;;;;;;;;-142.75;100.00;78665.28;5014701;28;20057;-65
2023/04/05 06:41:05;;;;;;;14.33;9.17;;;;;;;-142.75;100.00;78629.84;5004280;28;19916;-65
2023/04/05 06:43:31;;;;;;;16.10;9.03;;;;;;;-142.75;100.00;78602.28;4995068;28;20058;-66
2023/04/05 06:45:57;;;;;;;15.30;8.77;;;;;;;-142.75;100.00;78578.63;5009360;28;20033;-66
2023/04/05 06:48:22;;;;;;;16.33;9.13;;;;;;;-142.75;100.00;78572.72;5007404;28;20061;-66
2023/04/05 06:50:58;;;;;;;15.43;8.53;;;;;;;-142.75;100.00;78537.28;4996556;28;20434;-66
2023/04/05 06:53:26;;;;;;;15.75;9.18;;;;;;;-142.75;100.00;78511.69;4995218;28;20023;-67
2023/04/05 06:55:52;;;;;;;16.60;8.30;;;;;;;-142.75;100.00;78484.09;4995302;28;20033;-67
2023/04/05 06:58:17;;;;;;;16.53;9.17;;;;;;;-142.75;100.00;78486.06;4995740;28;20030;-67
2023/04/05 07:00:42;;;;;;;;;;;;;;;-142.75;100.00;78488.03;4996994;28;20398;-67
2023/04/05 07:03:07;;;;;;;12.47;7.67;;;;;;;-142.75;100.00;78474.25;5004353;28;19917;-66
2023/04/05 07:05:33;;;;;;;;;;;;;;;-142.75;100.00;78472.28;5016407;28;20115;-66
2023/04/05 07:07:58;;;;;;;14.10;8.50;;;;;;;-142.75;100.00;78454.56;5015380;28;20017;-66
2023/04/05 07:10:23;;;;;;;15.33;8.80;;;;;;;-142.75;100.00;78432.91;5016207;28;20037;-67
2023/04/05 07:12:50;;;;;;;13.73;8.87;;;;;;;-142.75;100.00;78421.09;5010113;28;20070;-67
2023/04/05 07:15:15;;;;;;;15.30;9.60;;;;;;;-142.75;100.00;78409.28;5004238;28;20029;-66
2023/04/05 07:17:41;;;;;;;14.67;8.13;;;;;;;-142.75;100.00;78391.53;5006118;28;20068;-66
2023/04/05 07:20:07;;;;;;;13.97;8.43;;;;;;;-142.75;100.00;78377.75;5009035;28;20108;-66
2023/04/05 07:22:33;;;;;;;11.57;7.33;;;;;;;-142.75;98.23;78367.91;5014251;28;20089;-67
2023/04/05 07:24:58;;;;;;;13.63;7.77;;;;;;;-142.75;96.00;78369.88;5014960;28;20029;-67
2023/04/05 07:27:24;;;;;;;13.77;7.70;;;;;;;-142.75;93.34;78354.13;5013328;28;20034;-68
2023/04/05 07:29:49;;;;;;;;;;;;;;;-142.75;92.86;78295.06;5014777;28;20026;-68
2023/04/05 07:32:14;;;;;;;14.37;7.77;;;;;;;-142.75;94.51;78302.94;5014495;28;19911;-67
2023/04/05 07:34:40;;;;;;;12.67;7.60;;;;;;;-142.75;93.20;78247.78;5014502;28;20057;-66
2023/04/05 07:37:05;;;;;;;16.50;7.77;;;;;;;-142.75;94.83;78247.78;5014067;28;20176;-67
2023/04/05 07:39:32;;;;;;;14.97;7.27;;;;;;;-142.75;91.42;78251.72;5013698;28;20050;-67
2023/04/05 07:41:57;;;;;;;12.53;7.70;;;;;;;-142.75;90.15;78220.22;5013571;28;20030;-69
2023/04/05 07:44:22;;;;;;;12.27;7.80;;;;;;;-142.75;88.14;78237.94;5012291;28;20037;-68
2023/04/05 07:46:48;;;;;;;15.13;7.60;;;;;;;-142.75;89.24;78263.53;5013431;28;20026;-67
2023/04/05 07:49:13;;;;;;;13.45;6.97;;;;;;;-142.75;87.63;78239.91;5012262;28;20474;-69
2023/04/05 07:51:38;;;;;;;12.17;7.20;;;;;;;-142.75;87.27;78186.75;5013462;28;20056;-68
2023/04/05 07:54:05;;;;;;;17.40;7.77;;;;;;;-142.75;84.92;78123.72;5012127;28;20022;-68
2023/04/05 07:56:31;;;;;;;13.15;7.75;;;;;;;-142.75;86.10;78092.22;5011831;28;20089;-66
2023/04/05 07:58:57;;;;;;;12.00;6.78;;;;;;;-142.75;83.74;78052.81;5011960;28;20053;-66
2023/04/05 08:01:26;;;;;;;12.70;6.57;;;;;;;-142.75;79.87;78039.03;5011972;28;20029;-67
2023/04/05 08:03:57;;;;;;;15.80;7.55;;;;;;;-142.75;79.88;77999.66;5012912;28;20111;-67
2023/04/05 08:06:26;;;;;;;12.18;7.03;;;;;;;-142.75;80.03;77960.28;5013123;28;20541;-67
2023/04/05 08:08:51;;;;;;;12.15;6.22;;;;;;;-142.75;77.80;77934.69;5006725;28;20390;-67
2023/04/05 08:11:17;;;;;;;12.40;6.60;;;;;;;-142.75;77.31;77960.28;5002791;28;20116;-67
2023/04/05 08:13:42;;;;;;;13.48;7.60;;;;;;;-142.75;78.14;77903.16;5002440;28;20053;-66
2023/04/05 08:16:09;;;;;;;11.82;6.28;;;;;;;-142.75;76.33;77928.78;4993181;28;20026;-66
2023/04/05 08:18:34;;;;;;;11.52;5.68;;;;;;;-142.75;74.55;77885.44;5003157;28;20034;-65
2023/04/05 08:21:00;;;;;;;13.95;6.45;;;;;;;-142.75;75.06;77867.72;5012858;28;20034;-65
2023/04/05 08:23:26;;;;;;;11.80;6.35;;;;;;;-142.75;74.84;77867.72;5011754;28;20042;-69
2023/04/05 08:25:52;;;;;;;13.68;6.38;;;;;;;-142.75;72.64;77781.09;5011290;28;20029;-68
2023/04/05 08:28:17;;;;;;;11.50;6.28;;;;;;;-142.75;71.52;77785.03;5012734;28;20706;-68
2023/04/05 08:30:44;;;;;;;13.45;6.18;;;;;;;-142.75;71.93;77771.25;5012651;28;20034;-68
2023/04/05 08:33:09;;;;;;;10.05;5.90;;;;;;;-142.75;69.64;77830.31;5012304;28;20489;-68
2023/04/05 08:35:35;;;;;;;8.10;4.70;;;;;;;-142.75;68.92;77720.03;5012132;28;20100;-67
2023/04/05 08:38:00;;;;;;;7.88;4.80;;;;;;;-142.75;66.91;77666.88;5012458;28;20152;-68
2023/04/05 08:40:46;;;;;;;12.20;5.53;;;;;;;-142.75;65.41;77637.34;5012536;28;20034;-68
2023/04/05 08:43:21;;;;;;;14.48;5.53;;;;;;;-142.75;64.81;77601.91;5010795;28;20045;-68
2023/04/05 08:45:51;;;;;;;8.23;5.13;;;;;;;-142.75;60.81;77659.00;5012265;28;20030;-68
2023/04/05 08:48:18;;;;;;;10.50;4.80;;;;;;;-142.75;61.37;77597.97;5012381;28;20029;-68
2023/04/05 08:50:53;;;;;;;10.05;5.53;;;;;;;-142.75;61.58;77564.50;5012373;28;20044;-68
2023/04/05 08:53:19;;;;;;;10.65;4.45;;;;;;;-142.75;57.57;77536.94;5012198;28;20506;-68
2023/04/05 08:56:05;;;;;;;9.10;4.78;;;;;;;-142.75;56.49;77552.69;5011956;28;20430;-68
2023/04/05 08:58:33;;;;;;;11.77;5.03;;;;;;;-142.75;58.51;77556.63;5012069;28;20064;-68
2023/04/05 09:01:00;;;;;;;9.60;4.60;;;;;;;-142.75;57.81;77489.69;5010443;28;20386;-68
2023/04/05 09:03:30;;;;;;;10.40;5.10;;;;;;;-142.75;56.60;77487.72;4994508;28;20534;-68
2023/04/05 09:05:58;;;;;;;8.70;4.40;;;;;;;-142.75;52.79;77440.44;4992397;28;20026;-68
2023/04/05 09:08:24;;;;;;;7.65;4.60;;;;;;;-142.75;50.82;77464.09;4992318;28;20510;-67
2023/04/05 09:10:50;;;;;;;7.47;4.38;;;;;;;-142.75;49.88;77464.09;4992537;28;20150;-68
2023/04/05 09:13:16;;;;;;;10.07;5.20;;;;;;;-142.75;51.76;77454.25;4992330;28;20422;-68
2023/04/05 09:15:42;;;;;;;8.07;4.55;;;;;;;-142.75;48.97;77489.69;4992000;28;20029;-68
2023/04/05 09:18:07;;;;;;;8.00;4.35;;;;;;;-142.75;51.18;77466.03;4992387;28;20046;-68
2023/04/05 09:20:33;;;;;;;10.52;5.07;;;;;;;-142.75;47.52;77466.03;5007773;28;20042;-66
2023/04/05 09:22:58;;;;;;;9.43;5.22;;;;;;;-142.75;49.24;77475.91;5011723;28;20026;-67
2023/04/05 09:25:38;;;;;;;9.73;4.38;;;;;;;-142.75;45.28;77446.34;5011915;28;20029;-66
2023/04/05 09:28:08;;;;;;;9.77;4.45;;;;;;;-142.75;45.05;77444.38;5011873;28;20037;-67
2023/04/05 09:30:36;;;;;;;7.25;3.83;;;;;;;-142.75;44.81;77450.28;5011938;28;20045;-67
2023/04/05 09:33:02;;;;;;;7.05;3.45;;;;;;;-142.75;43.11;77460.13;5011664;28;20026;-67
2023/04/05 09:35:30;;;;;;;9.88;4.03;;;;;;;-142.75;41.23;77426.66;5011626;28;20018;-67
2023/04/05 09:37:57;;;;;;;8.25;3.88;;;;;;;-142.75;42.02;77426.66;5011725;28;20034;-67
2023/04/05 09:40:23;;;;;;;8.95;4.25;;;;;;;-142.75;40.68;77466.03;5010518;28;20025;-68
2023/04/05 09:42:49;;;;;;;9.40;4.07;;;;;;;-142.75;42.34;77473.94;5011446;28;20429;-66
2023/04/05 09:45:17;;;;;;;9.18;4.28;;;;;;;-142.75;42.01;77405.00;5012781;28;20026;-67
2023/04/05 09:47:52;;;;;;;8.82;4.45;;;;;;;-142.75;41.82;77424.69;5015728;28;20489;-67
2023/04/05 09:50:18;;;;;;;9.55;4.60;;;;;;;-142.75;41.58;77389.25;5015669;28;20053;-67
2023/04/05 09:52:44;;;;;;;12.23;5.13;;;;;;;-142.75;41.15;77369.56;5015493;28;20018;-67
2023/04/05 09:55:10;;;;;;;7.88;4.40;;;;;;;-142.75;43.63;77389.25;5015798;28;20381;-66
2023/04/05 09:57:37;;;;;;;10.63;5.47;;;;;;;-142.75;42.93;77351.84;5015556;28;20389;-67
2023/04/05 10:00:04;;;;;;;9.43;5.57;;;;;;;-142.75;43.27;77340.03;5015523;28;20028;-67
2023/04/05 10:02:38;;;;;;;12.73;5.68;;;;;;;-142.75;41.76;77318.38;5015389;28;20018;-67
2023/04/05 10:05:12;;;;;;;13.35;5.60;;;;;;;-142.75;41.88;77448.34;5015264;28;20029;-67
2023/04/05 10:07:39;;;;;;;10.13;5.32;;;;;;;-142.75;41.65;77371.53;5013997;28;20026;-68
2023/04/05 10:10:05;;;;;;;11.55;5.30;;;;;;;-142.75;41.55;77351.84;5015332;28;20017;-67
2023/04/05 10:12:32;;;;;;;10.13;4.68;;;;;;;-142.75;41.22;77381.38;5006277;28;20075;-67
2023/04/05 10:14:58;;;;;;;9.73;4.97;;;;;;;-142.75;43.54;77422.72;5003900;28;20088;-67
2023/04/05 10:17:52;;;;;;;9.10;5.10;;;;;;;-142.75;41.33;77444.38;5004730;28;20608;-67
2023/04/05 10:20:22;;;;;;;9.45;5.10;;;;;;;-142.75;40.67;77373.50;5015069;28;20030;-68
2023/04/05 10:22:50;;;;;;;6.80;4.55;;;;;;;-142.75;39.69;77452.25;5014808;28;20025;-68
2023/04/05 10:25:31;;;;;;;9.30;4.68;;;;;;;-142.75;42.73;77401.06;5012939;28;20496;-67
2023/04/05 10:28:08;;;;;;;10.68;4.80;;;;;;;-142.75;40.69;77371.53;5014373;28;20037;-68
2023/04/05 10:30:39;;;;;;;9.63;4.90;;;;;;;-142.75;41.59;77342.00;5013855;28;20466;-68
2023/04/05 10:33:30;;;;;;;8.80;4.93;;;;;;;-142.75;40.25;77334.13;5013623;28;20029;-67
2023/04/05 10:36:10;;;;;;;12.10;5.25;;;;;;;-142.75;40.10;77330.19;5002336;28;20068;-67
2023/04/05 10:39:13;;;;;;;8.95;5.13;;;;;;;-142.75;40.46;77387.28;5004479;28;20018;-67
2023/04/05 10:41:45;;;;;;;10.10;5.63;;;;;;;-142.75;40.70;77318.38;5004733;28;20022;-68
2023/04/05 10:44:11;;;;;;;9.18;4.57;;;;;;;-142.75;40.87;77320.34;5003644;28;20044;-68
2023/04/05 10:46:39;;;;;;;10.43;5.65;;;;;;;-142.75;40.67;77338.06;5004224;28;20437;-67
2023/04/05 10:49:18;;;;;;;9.40;4.75;;;;;;;-142.75;41.43;77243.56;5007208;28;20584;-67
2023/04/05 10:51:44;;;;;;;12.90;5.22;;;;;;;-142.75;39.25;77286.88;5013966;28;20053;-67
2023/04/05 10:54:10;;;;;;;8.68;5.53;;;;;;;-142.75;39.48;77233.72;5014159;28;20099;-67
2023/04/05 10:56:38;;;;;;;10.90;5.20;;;;;;;-142.75;37.57;77265.22;5013464;28;20648;-67
2023/04/05 10:59:05;;;;;;;9.93;5.45;;;;;;;-142.75;39.04;77338.06;5013222;28;20421;-67
2023/04/05 11:01:31;;;;;;;7.70;4.85;;;;;;;-142.75;38.79;77316.41;5011711;28;20097;-67
2023/04/05 11:04:10;;;;;;;9.40;5.00;;;;;;;-142.75;39.85;77279.00;4994330;28;20077;-67
2023/04/05 11:06:35;;;;;;;10.10;5.28;;;;;;;-142.75;39.42;77288.84;5000921;28;20033;-67
2023/04/05 11:09:15;;;;;;;9.35;5.55;;;;;;;-142.75;41.29;77308.53;5002766;28;20457;-67
2023/04/05 11:11:43;;;;;;;8.98;5.47;;;;;;;-142.75;43.74;77243.56;5002282;28;20019;-67
2023/04/05 11:14:22;;;;;;;11.15;5.00;;;;;;;-142.75;39.87;77190.41;5001116;28;20023;-67